Terminal Aerodrome Forecast
Issued by NWS

Home | Current Version | Previous Version | Graphics & Text | Print | Product List | Glossary On
Versions: 1 2 3 4 5 6 7 8 9 10 11 12 13 14 15 16 17 18 19 20 21 22 23
000
FTUS42 KMHX 231737
TAFPGV
TAF
KPGV 231737Z 2318/2418 08008KT 6SM -SHRA SCT007 OVC015
      TEMPO 2318/2320 BKN007
     FM232100 12008KT 3SM SHRA SCT007 OVC015
     FM240300 21008KT 4SM SHRA OVC008 WS020/17040KT
     FM240600 24005KT P6SM VCSH OVC008 WS020/17040KT
     FM240900 05005KT P6SM OVC008
     FM241500 09005KT P6SM BKN025
      AMD LTD TO CLD VIS AND WIND=

USA.gov is the U.S. government's official web portal to all federal, state and local government web resources and services.